createdAt,value
2023-03-29T00:04:36.769Z,59.96
2023-03-29T00:07:42.815Z,60.93
2023-03-29T00:10:50.112Z,60.50
2023-03-29T00:14:04.788Z,62.77
2023-03-29T00:17:09.214Z,61.65
2023-03-29T00:20:15.072Z,62.34
2023-03-29T00:23:19.896Z,63.47
2023-03-29T00:26:25.237Z,62.98
2023-03-29T00:34:00.215Z,63.29
2023-03-29T00:37:09.241Z,63.04
2023-03-29T00:40:15.864Z,63.28
2023-03-29T00:43:20.655Z,62.63
2023-03-29T00:50:36.680Z,63.06
2023-03-29T00:53:49.700Z,63.01
2023-03-29T00:56:55.937Z,63.27
2023-03-29T01:00:05.633Z,63.32
2023-03-29T01:03:25.477Z,63.72
2023-03-29T01:06:34.662Z,64.16
2023-03-29T01:09:44.193Z,64.09
2023-03-29T01:12:57.557Z,63.55
2023-03-29T01:20:46.644Z,62.92
2023-03-29T01:24:19.759Z,63.33
2023-03-29T01:27:50.780Z,63.77
2023-03-29T01:31:04.420Z,63.69
2023-03-29T01:34:26.380Z,64.58
2023-03-29T01:37:34.478Z,64.65
2023-03-29T01:40:38.777Z,64.41
2023-03-29T01:43:59.505Z,65.65
2023-03-29T01:51:36.621Z,66.05
2023-03-29T01:54:56.616Z,66.65
2023-03-29T01:58:03.492Z,66.19
2023-03-29T02:01:10.909Z,65.98
2023-03-29T02:04:21.065Z,66.08
2023-03-29T02:07:31.001Z,66.47
2023-03-29T02:10:37.175Z,66.72
2023-03-29T02:13:42.408Z,66.07
2023-03-29T02:21:09.495Z,65.54
2023-03-29T02:24:19.141Z,65.39
2023-03-29T02:27:23.877Z,65.44
2023-03-29T02:30:34.445Z,65.12
2023-03-29T02:33:48.192Z,65.26
2023-03-29T02:37:02.452Z,65.46
2023-03-29T02:40:08.409Z,65.88
2023-03-29T02:43:17.027Z,66.67
2023-03-29T02:46:22.411Z,66.76
2023-03-29T02:49:27.417Z,67.83
2023-03-29T02:52:37.576Z,67.98
2023-03-29T02:55:42.318Z,68.26
2023-03-29T02:58:46.529Z,68.75
2023-03-29T03:06:12.712Z,68.82
2023-03-29T03:09:18.580Z,69.60
2023-03-29T03:12:23.504Z,70.08
2023-03-29T03:15:29.044Z,69.54
2023-03-29T03:18:34.293Z,69.70
2023-03-29T03:21:39.638Z,69.00
2023-03-29T03:24:43.853Z,69.32
2023-03-29T03:27:50.124Z,69.37
2023-03-29T03:30:55.066Z,69.50
2023-03-29T03:38:31.774Z,68.96
2023-03-29T03:41:38.143Z,69.33
2023-03-29T03:44:42.468Z,69.89
2023-03-29T03:47:48.867Z,70.46
2023-03-29T03:51:00.261Z,70.02
2023-03-29T03:54:09.258Z,70.45
2023-03-29T03:57:16.990Z,70.93
2023-03-29T04:00:23.747Z,70.45
2023-03-29T04:07:57.064Z,69.71
2023-03-29T04:11:03.250Z,69.87
2023-03-29T04:14:11.959Z,69.70
2023-03-29T04:17:17.821Z,70.03
2023-03-29T04:20:25.319Z,69.77
2023-03-29T04:23:38.345Z,69.90
2023-03-29T04:26:49.422Z,69.47
2023-03-29T04:29:55.286Z,69.99
2023-03-29T04:40:32.029Z,68.93
2023-03-29T04:43:48.026Z,68.20
2023-03-29T04:46:53.618Z,67.80
2023-03-29T04:50:01.076Z,67.32
2023-03-29T04:53:07.948Z,67.36
2023-03-29T04:56:13.917Z,66.82
2023-03-29T04:59:19.978Z,66.28
2023-03-29T05:02:38.062Z,65.55
2023-03-29T05:10:11.465Z,64.98
2023-03-29T05:13:21.106Z,64.48
2023-03-29T05:16:26.780Z,64.31
2023-03-29T05:19:33.009Z,64.06
2023-03-29T05:22:42.064Z,64.12
2023-03-29T05:25:50.785Z,63.70
2023-03-29T05:28:57.968Z,63.33
2023-03-29T05:32:03.311Z,63.31
2023-03-29T05:39:38.082Z,63.53
2023-03-29T05:42:44.364Z,63.46
2023-03-29T05:45:49.563Z,63.46
2023-03-29T05:48:58.130Z,63.66
2023-03-29T05:56:18.238Z,63.77
2023-03-29T05:59:24.916Z,63.41
2023-03-29T06:02:33.903Z,63.54
2023-03-29T06:05:40.836Z,63.52
2023-03-29T06:08:50.184Z,63.42
2023-03-29T06:12:09.554Z,63.39
2023-03-29T06:15:19.415Z,62.64
2023-03-29T06:18:29.154Z,61.90
2023-03-29T06:25:58.497Z,60.50
2023-03-29T06:29:04.769Z,60.26
2023-03-29T06:32:12.051Z,60.49
2023-03-29T06:35:25.705Z,59.81
2023-03-29T06:42:49.509Z,57.10
2023-03-29T06:45:58.884Z,55.52
2023-03-29T06:49:08.292Z,54.51
2023-03-29T06:52:14.966Z,51.24
2023-03-29T06:55:29.022Z,48.66
2023-03-29T06:58:36.424Z,47.81
2023-03-29T07:01:44.332Z,45.52
2023-03-29T07:04:52.948Z,49.89
2023-03-29T07:12:23.132Z,46.68
2023-03-29T07:15:35.002Z,48.60
2023-03-29T07:18:43.875Z,48.95
2023-03-29T07:26:28.815Z,47.81
2023-03-29T07:29:42.787Z,48.96
2023-03-29T07:32:47.160Z,48.15
2023-03-29T07:35:59.573Z,47.41
2023-03-29T07:43:35.197Z,46.13
2023-03-29T07:46:40.550Z,43.66
2023-03-29T07:49:47.330Z,44.04
2023-03-29T07:52:57.289Z,42.01
2023-03-29T07:56:11.127Z,41.46
2023-03-29T07:59:17.904Z,41.00
2023-03-29T08:02:24.217Z,40.40
2023-03-29T08:05:40.749Z,38.38
2023-03-29T08:13:11.052Z,35.30
2023-03-29T08:16:23.630Z,35.21
2023-03-29T08:19:36.290Z,36.35
2023-03-29T08:22:45.131Z,32.44
2023-03-29T08:25:52.589Z,34.57
2023-03-29T08:28:57.752Z,36.45
2023-03-29T08:32:09.960Z,34.16
2023-03-29T08:35:18.301Z,35.32
2023-03-29T08:43:23.365Z,33.91
2023-03-29T08:46:44.704Z,33.06
2023-03-29T08:49:57.401Z,33.41
2023-03-29T08:53:11.041Z,31.84
2023-03-29T08:56:26.010Z,33.00
2023-03-29T08:59:35.048Z,31.48
2023-03-29T09:02:42.620Z,32.57
2023-03-29T09:06:13.395Z,32.44
2023-03-29T09:09:23.438Z,31.63
2023-03-29T09:13:15.199Z,31.71
2023-03-29T09:16:36.727Z,31.80
2023-03-29T09:20:04.197Z,28.70
2023-03-29T09:23:32.767Z,29.70
2023-03-29T09:27:06.267Z,30.25
2023-03-29T09:30:27.265Z,28.46
2023-03-29T09:33:55.567Z,30.18
2023-03-29T09:37:21.798Z,29.61
2023-03-29T09:40:42.113Z,30.06
2023-03-29T09:43:51.676Z,29.52
2023-03-29T09:47:04.961Z,29.33
2023-03-29T09:50:31.368Z,28.45
2023-03-29T09:53:36.604Z,27.97
2023-03-29T09:56:45.009Z,30.94
2023-03-29T09:59:51.987Z,29.45
2023-03-29T10:02:57.952Z,28.83
2023-03-29T10:06:05.331Z,28.68
2023-03-29T10:09:20.056Z,28.63
2023-03-29T10:12:25.243Z,28.65
2023-03-29T10:15:30.926Z,28.65
2023-03-29T10:18:44.063Z,28.51
2023-03-29T10:21:50.151Z,27.26
2023-03-29T10:24:58.901Z,28.83
2023-03-29T10:28:12.289Z,28.50
2023-03-29T10:31:21.399Z,28.93
2023-03-29T10:34:29.992Z,28.73
2023-03-29T10:37:36.011Z,28.53
2023-03-29T10:40:47.802Z,28.25
2023-03-29T10:43:53.877Z,28.73
2023-03-29T10:47:07.041Z,29.08
2023-03-29T10:50:18.750Z,29.21
2023-03-29T10:53:29.795Z,29.81
2023-03-29T10:56:37.268Z,29.59
2023-03-29T11:00:05.773Z,29.99
2023-03-29T11:03:28.240Z,29.14
2023-03-29T11:06:41.299Z,29.32
2023-03-29T11:09:58.857Z,29.31
2023-03-29T11:13:34.728Z,30.37
2023-03-29T11:17:13.920Z,29.59
2023-03-29T11:21:11.013Z,29.95
2023-03-29T11:24:51.528Z,29.85
2023-03-29T11:28:13.331Z,30.69
2023-03-29T11:31:38.875Z,29.88
2023-03-29T11:34:55.809Z,30.55
2023-03-29T11:38:13.830Z,31.68
2023-03-29T11:41:18.993Z,32.03
2023-03-29T11:44:22.364Z,32.38
2023-03-29T11:47:37.436Z,33.09
2023-03-29T11:51:02.019Z,33.08
2023-03-29T11:54:28.784Z,33.00
2023-03-29T11:57:52.704Z,33.19
2023-03-29T12:01:18.950Z,32.92
2023-03-29T12:04:41.394Z,32.36
2023-03-29T12:07:59.004Z,32.48
2023-03-29T12:11:14.691Z,32.76
2023-03-29T12:14:32.003Z,34.56
2023-03-29T12:17:46.166Z,33.05
2023-03-29T12:20:57.713Z,33.54
2023-03-29T12:24:02.489Z,33.47
2023-03-29T12:27:29.950Z,34.16
2023-03-29T12:30:36.892Z,34.18
2023-03-29T12:34:03.846Z,34.52
2023-03-29T12:37:24.972Z,34.53
2023-03-29T12:40:45.768Z,35.31
2023-03-29T12:44:04.796Z,35.64
2023-03-29T12:47:22.301Z,35.83
2023-03-29T12:50:36.147Z,35.69
2023-03-29T12:53:45.805Z,35.94
2023-03-29T12:57:21.298Z,36.34
2023-03-29T13:00:34.390Z,35.99
2023-03-29T13:03:40.746Z,36.90
2023-03-29T13:06:51.707Z,36.36
2023-03-29T13:09:59.428Z,36.93
2023-03-29T13:13:15.829Z,36.43
2023-03-29T13:16:31.400Z,36.80
2023-03-29T13:19:47.716Z,37.38
2023-03-29T13:23:18.352Z,37.61
2023-03-29T13:26:57.782Z,36.94
2023-03-29T13:30:31.394Z,37.30
2023-03-29T13:33:53.328Z,38.54
2023-03-29T13:37:40.717Z,38.75
2023-03-29T13:40:54.945Z,39.48
2023-03-29T13:44:02.870Z,39.90
2023-03-29T13:47:22.729Z,39.51
2023-03-29T13:50:42.902Z,39.13
2023-03-29T13:53:50.252Z,39.02
2023-03-29T13:57:24.877Z,37.42
2023-03-29T14:00:53.664Z,38.21
2023-03-29T14:04:06.584Z,38.19
2023-03-29T14:07:26.545Z,37.41
2023-03-29T14:10:44.704Z,38.10
2023-03-29T14:14:06.957Z,38.93
2023-03-29T14:17:26.976Z,38.07
2023-03-29T14:20:33.132Z,38.49
2023-03-29T14:23:42.150Z,38.07
2023-03-29T14:26:49.828Z,38.31
2023-03-29T14:29:55.571Z,39.20
2023-03-29T14:33:09.128Z,38.90
2023-03-29T14:36:18.775Z,39.51
2023-03-29T14:39:25.077Z,39.85
2023-03-29T14:42:37.049Z,39.93
2023-03-29T14:45:54.692Z,39.55
2023-03-29T14:48:59.259Z,39.57
2023-03-29T14:52:15.796Z,39.87
2023-03-29T14:55:28.707Z,40.57
2023-03-29T14:58:50.011Z,40.96
2023-03-29T15:02:00.130Z,40.53
2023-03-29T15:05:26.763Z,41.29
2023-03-29T15:09:03.748Z,40.89
2023-03-29T15:12:22.856Z,40.92
2023-03-29T15:15:28.956Z,41.27
2023-03-29T15:18:40.190Z,41.22
2023-03-29T15:22:02.235Z,40.90
2023-03-29T15:25:18.776Z,40.71
2023-03-29T15:28:31.800Z,41.08
2023-03-29T15:31:39.736Z,41.69
2023-03-29T15:35:02.700Z,41.00
2023-03-29T15:38:07.000Z,41.72
2023-03-29T15:41:20.657Z,41.17
2023-03-29T15:44:39.028Z,41.67
2023-03-29T15:47:54.642Z,41.87
2023-03-29T15:51:06.098Z,42.22
2023-03-29T15:54:20.630Z,41.95
2023-03-29T15:57:26.711Z,42.49
2023-03-29T16:00:33.884Z,41.69
2023-03-29T16:03:47.650Z,42.01
2023-03-29T16:06:57.882Z,42.32
2023-03-29T16:10:03.869Z,42.46
2023-03-29T16:13:14.756Z,43.29
2023-03-29T16:16:31.636Z,43.03
2023-03-29T16:19:35.152Z,43.67
2023-03-29T16:22:55.339Z,42.65
2023-03-29T16:26:06.653Z,44.00
2023-03-29T16:29:14.775Z,43.28
2023-03-29T16:32:18.150Z,43.38
2023-03-29T16:35:33.781Z,43.61
2023-03-29T16:38:56.603Z,43.75
2023-03-29T16:42:14.617Z,43.92
2023-03-29T16:45:27.413Z,45.12
2023-03-29T16:48:51.643Z,44.99
2023-03-29T16:51:56.537Z,46.03
2023-03-29T16:55:27.617Z,46.31
2023-03-29T16:58:43.666Z,47.60
2023-03-29T17:01:58.732Z,48.29
2023-03-29T17:05:04.234Z,49.54
2023-03-29T17:08:18.751Z,50.34
2023-03-29T17:11:36.844Z,49.55
2023-03-29T17:14:56.639Z,50.30
2023-03-29T17:18:02.732Z,50.30
2023-03-29T17:21:14.193Z,51.60
2023-03-29T17:24:26.720Z,51.07
2023-03-29T17:27:30.690Z,51.33
2023-03-29T17:30:42.793Z,52.67
2023-03-29T17:34:03.691Z,52.81
2023-03-29T17:37:24.008Z,53.25
2023-03-29T17:40:31.685Z,52.96
2023-03-29T17:43:58.591Z,53.89
2023-03-29T17:47:20.627Z,54.04
2023-03-29T17:50:32.726Z,53.62
2023-03-29T17:53:52.714Z,53.91
2023-03-29T17:57:05.139Z,54.07
2023-03-29T18:00:17.974Z,54.21
2023-03-29T18:03:36.620Z,55.37
2023-03-29T18:06:50.739Z,54.83
2023-03-29T18:10:20.658Z,54.35
2023-03-29T18:13:30.201Z,54.56
2023-03-29T18:16:38.344Z,54.98
2023-03-29T18:19:41.936Z,55.08
2023-03-29T18:22:51.712Z,55.25
2023-03-29T18:26:03.225Z,55.15
2023-03-29T18:29:10.898Z,55.37
2023-03-29T18:32:21.147Z,55.32
2023-03-29T18:35:44.681Z,54.69
2023-03-29T18:38:59.878Z,54.32
2023-03-29T18:42:10.821Z,54.70
2023-03-29T18:45:23.745Z,55.35
2023-03-29T18:48:35.726Z,55.32
2023-03-29T18:51:59.712Z,55.63
2023-03-29T18:55:12.790Z,56.65
2023-03-29T18:58:24.098Z,56.30
2023-03-29T19:01:27.694Z,56.73
2023-03-29T19:04:34.747Z,56.82
2023-03-29T19:07:44.335Z,57.46
2023-03-29T19:10:49.728Z,57.30
2023-03-29T19:13:58.716Z,57.00
2023-03-29T19:17:21.797Z,57.68
2023-03-29T19:20:32.273Z,57.63
2023-03-29T19:23:42.473Z,57.99
2023-03-29T19:26:59.714Z,57.58
2023-03-29T19:30:11.645Z,58.80
2023-03-29T19:33:28.603Z,58.44
2023-03-29T19:36:31.980Z,58.37
2023-03-29T19:39:41.924Z,58.43
2023-03-29T19:42:51.937Z,58.55
2023-03-29T19:45:57.432Z,59.12
2023-03-29T19:49:13.741Z,59.43
2023-03-29T19:52:24.078Z,60.38
2023-03-29T19:55:31.701Z,60.09
2023-03-29T19:58:50.576Z,59.84
2023-03-29T20:02:04.917Z,60.04
2023-03-29T20:05:10.875Z,60.19
2023-03-29T20:08:21.745Z,60.22
2023-03-29T20:11:29.725Z,60.42
2023-03-29T20:14:49.561Z,60.21
2023-03-29T20:17:59.423Z,60.24
2023-03-29T20:21:04.964Z,60.75
2023-03-29T20:24:12.800Z,60.67
2023-03-29T20:27:25.651Z,60.03
2023-03-29T20:30:29.610Z,60.51
2023-03-29T20:33:36.150Z,60.78
2023-03-29T20:36:41.217Z,60.66
2023-03-29T20:39:45.268Z,61.24
2023-03-29T20:42:49.074Z,61.13
2023-03-29T20:45:53.843Z,61.05
2023-03-29T20:49:09.745Z,62.00
2023-03-29T20:52:17.697Z,61.41
2023-03-29T20:55:24.562Z,61.17
2023-03-29T20:58:34.827Z,62.17
2023-03-29T21:01:44.745Z,61.18
2023-03-29T21:04:53.928Z,61.97
2023-03-29T21:07:58.372Z,63.66
2023-03-29T21:11:03.345Z,63.91
2023-03-29T21:14:15.630Z,65.90
2023-03-29T21:17:20.120Z,64.96
2023-03-29T21:20:25.140Z,65.32
2023-03-29T21:23:28.582Z,65.55
2023-03-29T21:26:32.236Z,64.81
2023-03-29T21:29:39.818Z,65.34
2023-03-29T21:32:43.242Z,67.10
2023-03-29T21:35:50.478Z,66.00
2023-03-29T21:38:55.735Z,66.45
2023-03-29T21:42:02.270Z,66.91
2023-03-29T21:45:10.967Z,67.17
2023-03-29T21:48:14.394Z,67.60
2023-03-29T21:51:23.873Z,69.11
2023-03-29T21:54:27.695Z,68.90
2023-03-29T21:57:31.674Z,69.17
2023-03-29T22:00:34.775Z,68.64
2023-03-29T22:03:39.255Z,69.35
2023-03-29T22:06:43.088Z,70.44
2023-03-29T22:09:55.083Z,70.20
2023-03-29T22:12:58.234Z,69.29
2023-03-29T22:16:04.039Z,70.56
2023-03-29T22:19:09.753Z,71.24
2023-03-29T22:22:14.926Z,73.18
2023-03-29T22:25:24.467Z,72.67
2023-03-29T22:28:27.493Z,72.42
2023-03-29T22:31:31.941Z,72.72
2023-03-29T22:34:36.382Z,73.54
2023-03-29T22:37:42.590Z,73.26
2023-03-29T22:40:47.452Z,73.42
2023-03-29T22:43:55.389Z,73.95
2023-03-29T22:46:59.146Z,76.71
2023-03-29T22:50:02.328Z,75.38
2023-03-29T22:53:05.380Z,75.47
2023-03-29T22:56:09.297Z,75.23
2023-03-29T22:59:13.796Z,75.91
2023-03-29T23:02:17.339Z,76.08
2023-03-29T23:05:20.106Z,75.79
2023-03-29T23:08:24.396Z,76.25
2023-03-29T23:11:27.705Z,76.41
2023-03-29T23:14:31.249Z,76.94
2023-03-29T23:17:35.070Z,76.81
2023-03-29T23:20:37.864Z,77.23
2023-03-29T23:23:41.785Z,76.87
2023-03-29T23:26:44.437Z,78.07
2023-03-29T23:29:47.941Z,77.39
2023-03-29T23:32:52.563Z,76.91
2023-03-29T23:35:55.543Z,76.79
2023-03-29T23:38:59.639Z,76.48
2023-03-29T23:42:03.685Z,77.00
2023-03-29T23:45:08.832Z,77.26
2023-03-29T23:48:11.594Z,77.83
2023-03-29T23:51:18.193Z,77.37
2023-03-29T23:54:21.334Z,77.50
2023-03-29T23:57:24.199Z,77.42
